createdAt,value
2022-08-31T00:00:33.024Z,93077.53
2022-08-31T00:02:23.251Z,93069.00
2022-08-31T00:03:55.589Z,93071.31
2022-08-31T00:05:28.309Z,93073.69
2022-08-31T00:06:59.883Z,93075.59
2022-08-31T00:08:31.548Z,93074.53
2022-08-31T00:10:14.132Z,93073.84
2022-08-31T00:11:45.757Z,93069.19
2022-08-31T00:13:17.996Z,93071.47
2022-08-31T00:14:49.808Z,93081.22
2022-08-31T00:16:21.517Z,93081.56
2022-08-31T00:17:53.356Z,93077.59
2022-08-31T00:19:24.952Z,93082.34
2022-08-31T00:20:56.786Z,93079.19
2022-08-31T00:22:28.611Z,93077.94
2022-08-31T00:24:00.136Z,93086.47
2022-08-31T00:25:31.833Z,93076.75
2022-08-31T00:27:03.518Z,93083.75
2022-08-31T00:28:35.434Z,93086.81
2022-08-31T00:30:08.175Z,93086.03
2022-08-31T00:31:39.843Z,93088.31
2022-08-31T00:33:12.219Z,93083.47
2022-08-31T00:34:43.908Z,93084.16
2022-08-31T00:36:15.505Z,93095.28
2022-08-31T00:37:47.020Z,93088.72
2022-08-31T00:39:18.812Z,93083.16
2022-08-31T00:40:50.934Z,93083.44
2022-08-31T00:42:23.487Z,93086.38
2022-08-31T00:43:56.564Z,93075.09
2022-08-31T00:45:28.922Z,93082.78
2022-08-31T00:47:00.572Z,93087.78
2022-08-31T00:48:32.072Z,93082.66
2022-08-31T00:50:07.498Z,93088.44
2022-08-31T00:51:43.971Z,93092.63
2022-08-31T00:53:15.528Z,93088.31
2022-08-31T00:54:53.546Z,93091.75
2022-08-31T00:56:25.078Z,93092.09
2022-08-31T00:57:57.262Z,93085.41
2022-08-31T00:59:28.966Z,93089.59
2022-08-31T01:01:01.257Z,93090.41
2022-08-31T01:02:33.058Z,93079.88
2022-08-31T01:04:05.086Z,93081.03
2022-08-31T01:05:37.271Z,93085.66
2022-08-31T01:07:09.174Z,93084.88
2022-08-31T01:08:42.171Z,93092.56
2022-08-31T01:10:14.081Z,93091.69
2022-08-31T01:11:45.794Z,93095.44
2022-08-31T01:13:17.574Z,93088.75
2022-08-31T01:14:49.252Z,93092.72
2022-08-31T01:16:25.283Z,93081.06
2022-08-31T01:17:57.484Z,93086.13
2022-08-31T01:19:34.259Z,93083.41
2022-08-31T01:21:05.836Z,93088.97
2022-08-31T01:22:40.767Z,93089.28
2022-08-31T01:24:12.351Z,93083.78
2022-08-31T01:25:44.169Z,93089.56
2022-08-31T01:27:18.182Z,93094.19
2022-08-31T01:28:50.445Z,93089.44
2022-08-31T01:30:23.017Z,93093.28
2022-08-31T01:31:54.985Z,93081.75
2022-08-31T01:33:26.765Z,93095.00
2022-08-31T01:34:58.475Z,93089.22
2022-08-31T01:36:30.542Z,93097.38
2022-08-31T01:38:02.275Z,93103.94
2022-08-31T01:39:33.846Z,93097.25
2022-08-31T01:41:05.481Z,93101.09
2022-08-31T01:42:37.179Z,93109.13
2022-08-31T01:44:08.876Z,93104.84
2022-08-31T01:45:40.374Z,93107.91
2022-08-31T01:47:11.963Z,93105.63
2022-08-31T01:48:44.005Z,93109.13
2022-08-31T01:50:15.658Z,93108.34
2022-08-31T01:51:47.321Z,93109.13
2022-08-31T01:53:19.265Z,93110.38
2022-08-31T01:54:51.022Z,93106.88
2022-08-31T01:56:48.861Z,93110.38
2022-08-31T01:58:20.490Z,93115.69
2022-08-31T01:59:52.494Z,93118.00
2022-08-31T02:01:31.289Z,93115.16
2022-08-31T02:03:09.647Z,93117.09
2022-08-31T02:04:41.418Z,93115.84
2022-08-31T02:06:13.524Z,93116.97
2022-08-31T02:07:45.238Z,93116.50
2022-08-31T02:09:16.849Z,93114.16
2022-08-31T02:10:48.955Z,93114.50
2022-08-31T02:12:20.621Z,93112.13
2022-08-31T02:13:52.230Z,93110.53
2022-08-31T02:15:24.008Z,93112.78
2022-08-31T02:16:55.629Z,93116.63
2022-08-31T02:18:27.299Z,93117.31
2022-08-31T02:19:58.822Z,93117.69
2022-08-31T02:21:30.547Z,93115.19
2022-08-31T02:23:03.550Z,93122.53
2022-08-31T02:24:35.288Z,93114.38
2022-08-31T02:26:07.038Z,93112.47
2022-08-31T02:27:38.622Z,93118.69
2022-08-31T02:29:10.194Z,93127.28
2022-08-31T02:30:42.057Z,93112.25
2022-08-31T02:32:19.727Z,93120.03
2022-08-31T02:33:52.069Z,93116.19
2022-08-31T02:35:23.753Z,93110.09
2022-08-31T02:36:55.688Z,93112.78
2022-08-31T02:38:27.608Z,93104.31
2022-08-31T02:39:59.194Z,93107.03
2022-08-31T02:41:31.371Z,93100.81
2022-08-31T02:43:03.130Z,93097.28
2022-08-31T02:44:34.728Z,93099.22
2022-08-31T02:46:06.532Z,93098.44
2022-08-31T02:47:38.115Z,93098.75
2022-08-31T02:49:09.777Z,93092.19
2022-08-31T02:50:42.010Z,93089.81
2022-08-31T02:52:13.733Z,93092.09
2022-08-31T02:53:45.674Z,93090.53
2022-08-31T02:55:18.695Z,93086.69
2022-08-31T02:56:53.879Z,93076.94
2022-08-31T02:58:25.486Z,93082.38
2022-08-31T02:59:57.435Z,93086.31
2022-08-31T03:01:29.477Z,93084.84
2022-08-31T03:03:01.274Z,93088.34
2022-08-31T03:04:32.867Z,93088.81
2022-08-31T03:06:04.909Z,93092.66
2022-08-31T03:07:37.119Z,93094.25
2022-08-31T03:09:09.092Z,93092.66
2022-08-31T03:10:40.939Z,93089.59
2022-08-31T03:12:19.679Z,93088.47
2022-08-31T03:13:53.285Z,93091.53
2022-08-31T03:15:29.089Z,93093.78
2022-08-31T03:17:00.670Z,93095.25
2022-08-31T03:18:33.086Z,93095.97
2022-08-31T03:20:06.387Z,93095.16
2022-08-31T03:21:38.000Z,93095.84
2022-08-31T03:23:11.860Z,93091.53
2022-08-31T03:24:44.560Z,93090.28
2022-08-31T03:26:16.499Z,93089.84
2022-08-31T03:27:48.176Z,93085.19
2022-08-31T03:29:19.767Z,93093.00
2022-08-31T03:30:51.361Z,93085.66
2022-08-31T03:32:23.126Z,93084.06
2022-08-31T03:33:55.453Z,93087.91
2022-08-31T03:35:27.173Z,93084.41
2022-08-31T03:37:07.956Z,93082.06
2022-08-31T03:38:39.500Z,93083.63
2022-08-31T03:40:29.232Z,93082.06
2022-08-31T03:42:00.800Z,93087.50
2022-08-31T03:43:32.412Z,93081.25
2022-08-31T03:45:04.901Z,93091.66
2022-08-31T03:46:36.814Z,93083.53
2022-08-31T03:48:12.233Z,93082.06
2022-08-31T03:49:49.565Z,93087.91
2022-08-31T03:51:21.391Z,93090.63
2022-08-31T03:52:56.921Z,93082.94
2022-08-31T03:54:28.601Z,93086.78
2022-08-31T03:56:05.768Z,93089.94
2022-08-31T03:57:37.550Z,93091.88
2022-08-31T03:59:09.118Z,93090.28
2022-08-31T04:00:42.386Z,93089.16
2022-08-31T04:02:14.257Z,93094.25
2022-08-31T04:03:45.877Z,93095.50
2022-08-31T04:05:21.534Z,93094.38
2022-08-31T04:06:53.088Z,93097.44
2022-08-31T04:08:25.418Z,93088.81
2022-08-31T04:09:57.053Z,93097.44
2022-08-31T04:11:44.402Z,93094.25
2022-08-31T04:13:16.685Z,93094.25
2022-08-31T04:14:48.280Z,93093.56
2022-08-31T04:16:21.206Z,93096.38
2022-08-31T04:17:57.081Z,93094.91
2022-08-31T04:19:31.319Z,93093.78
2022-08-31T04:21:03.398Z,93085.75
2022-08-31T04:22:36.036Z,93087.00
2022-08-31T04:24:07.670Z,93081.91
2022-08-31T04:25:39.434Z,93081.91
2022-08-31T04:27:11.204Z,93079.53
2022-08-31T04:28:42.884Z,93076.34
2022-08-31T04:30:14.729Z,93080.22
2022-08-31T04:31:49.744Z,93078.28
2022-08-31T04:33:21.450Z,93075.69
2022-08-31T04:34:56.574Z,93083.91
2022-08-31T04:36:28.623Z,93078.25
2022-08-31T04:38:05.390Z,93081.44
2022-08-31T04:39:52.259Z,93073.81
2022-08-31T04:41:24.456Z,93070.41
2022-08-31T04:42:56.297Z,93082.66
2022-08-31T04:44:28.845Z,93073.44
2022-08-31T04:46:00.573Z,93079.06
2022-08-31T04:47:32.283Z,93072.16
2022-08-31T04:49:03.994Z,93076.72
2022-08-31T04:50:39.313Z,93078.31
2022-08-31T04:52:13.645Z,93077.72
2022-08-31T04:53:45.495Z,93076.22
2022-08-31T04:55:17.312Z,93076.31
2022-08-31T04:56:48.821Z,93078.69
2022-08-31T04:58:20.701Z,93071.13
2022-08-31T04:59:52.312Z,93068.06
2022-08-31T05:01:24.736Z,93065.09
2022-08-31T05:02:56.502Z,93069.84
2022-08-31T05:04:29.426Z,93072.28
2022-08-31T05:06:01.142Z,93062.75
2022-08-31T05:07:32.805Z,93062.16
2022-08-31T05:09:06.175Z,93067.00
2022-08-31T05:10:40.507Z,93065.94
2022-08-31T05:12:12.072Z,93065.78
2022-08-31T05:13:43.719Z,93060.88
2022-08-31T05:15:15.435Z,93063.34
2022-08-31T05:16:47.028Z,93061.94
2022-08-31T05:18:18.740Z,93063.59
2022-08-31T05:19:53.491Z,93062.97
2022-08-31T05:21:28.309Z,93065.47
2022-08-31T05:22:59.979Z,93055.53
2022-08-31T05:24:35.912Z,93060.47
2022-08-31T05:26:07.751Z,93061.41
2022-08-31T05:27:39.874Z,93064.75
2022-08-31T05:29:13.329Z,93072.03
2022-08-31T05:30:45.218Z,93058.13
2022-08-31T05:32:16.879Z,93061.38
2022-08-31T05:33:50.811Z,93057.06
2022-08-31T05:35:22.376Z,93055.28
2022-08-31T05:36:54.672Z,93057.81
2022-08-31T05:38:26.444Z,93058.78
2022-08-31T05:39:58.129Z,93059.69
2022-08-31T05:41:30.016Z,93061.19
2022-08-31T05:43:01.813Z,93059.56
2022-08-31T05:44:36.432Z,93063.66
2022-08-31T05:46:10.464Z,93056.97
2022-08-31T05:47:42.704Z,93056.44
2022-08-31T05:49:14.421Z,93055.16
2022-08-31T05:50:47.846Z,93047.53
2022-08-31T05:52:19.374Z,93049.25
2022-08-31T05:53:58.222Z,93055.63
2022-08-31T05:55:30.316Z,93051.06
2022-08-31T05:57:02.682Z,93060.19
2022-08-31T05:58:34.352Z,93051.78
2022-08-31T06:00:09.872Z,93057.72
2022-08-31T06:01:42.208Z,93056.72
2022-08-31T06:03:13.857Z,93051.38
2022-08-31T06:04:45.631Z,93057.34
2022-08-31T06:06:17.313Z,93056.66
2022-08-31T06:07:51.871Z,93057.28
2022-08-31T06:09:23.462Z,93052.28
2022-08-31T06:10:59.471Z,93056.31
2022-08-31T06:12:34.405Z,93060.44
2022-08-31T06:14:06.139Z,93058.88
2022-08-31T06:15:39.527Z,93059.69
2022-08-31T06:17:17.630Z,93063.78
2022-08-31T06:18:52.228Z,93055.41
2022-08-31T06:20:26.653Z,93052.06
2022-08-31T06:21:58.482Z,93057.38
2022-08-31T06:23:30.390Z,93049.16
2022-08-31T06:25:02.284Z,93052.13
2022-08-31T06:26:34.652Z,93054.66
2022-08-31T06:28:07.479Z,93050.50
2022-08-31T06:29:39.057Z,93054.50
2022-08-31T06:31:24.091Z,93053.50
2022-08-31T06:32:58.626Z,93052.03
2022-08-31T06:34:30.712Z,93044.63
2022-08-31T06:36:02.492Z,93050.59
2022-08-31T06:37:34.454Z,93053.84
2022-08-31T06:39:06.132Z,93049.25
2022-08-31T07:10:56.217Z,93070.00
2022-08-31T07:12:27.893Z,93069.72
2022-08-31T07:13:59.620Z,93070.94
2022-08-31T07:15:31.291Z,93074.13
2022-08-31T07:17:05.964Z,93074.91
2022-08-31T07:18:38.195Z,93078.44
2022-08-31T07:20:10.041Z,93071.88
2022-08-31T07:21:41.637Z,93077.06
2022-08-31T07:23:13.313Z,93071.28
2022-08-31T07:24:45.264Z,93075.25
2022-08-31T07:26:18.755Z,93081.19
2022-08-31T07:27:53.411Z,93076.91
2022-08-31T07:29:25.717Z,93074.22
2022-08-31T07:30:57.380Z,93079.31
2022-08-31T07:32:29.146Z,93081.69
2022-08-31T07:34:05.602Z,93076.97
2022-08-31T07:35:39.930Z,93076.97
2022-08-31T07:37:30.248Z,93077.38
2022-08-31T07:39:20.636Z,93070.28
2022-08-31T07:41:10.704Z,93067.94
2022-08-31T07:42:43.925Z,93067.13
2022-08-31T07:44:15.727Z,93067.91
2022-08-31T07:45:47.834Z,93078.91
2022-08-31T07:47:22.830Z,93069.44
2022-08-31T07:48:54.546Z,93077.66
2022-08-31T07:50:27.520Z,93075.28
2022-08-31T07:52:00.216Z,93065.75
2022-08-31T07:53:32.629Z,93069.22
2022-08-31T07:55:09.588Z,93069.97
2022-08-31T07:56:43.402Z,93071.13
2022-08-31T07:58:17.503Z,93073.81
2022-08-31T07:59:54.660Z,93069.06
2022-08-31T08:01:27.082Z,93068.59
2022-08-31T08:03:05.229Z,93067.41
2022-08-31T08:04:39.352Z,93061.50
2022-08-31T08:06:16.318Z,93068.97
2022-08-31T08:07:54.671Z,93065.81
2022-08-31T08:09:27.166Z,93065.84
2022-08-31T08:11:00.265Z,93066.22
2022-08-31T08:12:36.501Z,93062.53
2022-08-31T08:14:09.164Z,93065.16
2022-08-31T08:15:40.792Z,93063.13
2022-08-31T08:17:12.818Z,93069.03
2022-08-31T08:18:44.679Z,93078.91
2022-08-31T08:20:16.210Z,93069.81
2022-08-31T08:21:47.945Z,93071.81
2022-08-31T08:23:27.817Z,93069.59
2022-08-31T08:25:07.278Z,93071.72
2022-08-31T08:26:42.123Z,93075.00
2022-08-31T08:30:09.764Z,93065.06
2022-08-31T08:31:41.426Z,93065.28
2022-08-31T08:33:13.459Z,93067.63
2022-08-31T08:34:45.114Z,93070.88
2022-08-31T08:36:18.592Z,93069.59
2022-08-31T08:38:01.408Z,93065.50
2022-08-31T08:39:36.398Z,93070.84
2022-08-31T08:41:13.291Z,93068.34
2022-08-31T08:42:44.990Z,93062.56
2022-08-31T08:44:18.162Z,93066.47
2022-08-31T08:45:52.036Z,93064.03
2022-08-31T08:47:38.430Z,93058.78
2022-08-31T08:49:14.599Z,93061.78
2022-08-31T08:50:46.451Z,93049.75
2022-08-31T08:52:25.483Z,93055.50
2022-08-31T08:54:02.420Z,93049.84
2022-08-31T08:55:35.257Z,93043.91
2022-08-31T08:57:14.244Z,93047.09
2022-08-31T08:58:46.382Z,93046.69
2022-08-31T09:00:19.881Z,93040.75
2022-08-31T09:01:56.808Z,93041.22
2022-08-31T09:03:44.483Z,93042.84
2022-08-31T09:05:33.166Z,93049.44
2022-08-31T09:07:11.983Z,93043.56
2022-08-31T09:08:54.941Z,93042.09
2022-08-31T09:10:26.642Z,93036.16
2022-08-31T09:12:05.292Z,93040.38
2022-08-31T09:13:39.769Z,93037.06
2022-08-31T09:15:11.843Z,93029.03
2022-08-31T09:17:02.387Z,93027.03
2022-08-31T09:18:34.695Z,93026.53
2022-08-31T09:20:07.062Z,93029.28
2022-08-31T09:21:51.805Z,93032.28
2022-08-31T09:23:23.753Z,93021.03
2022-08-31T09:24:59.534Z,93019.25
2022-08-31T09:26:34.202Z,93019.50
2022-08-31T09:28:07.578Z,93011.34
2022-08-31T09:29:44.205Z,93018.19
2022-08-31T09:31:42.363Z,93018.25
2022-08-31T09:33:16.888Z,93008.59
2022-08-31T09:34:52.342Z,93005.66
2022-08-31T09:36:25.468Z,93010.34
2022-08-31T09:38:02.133Z,93009.88
2022-08-31T09:39:37.137Z,93003.72
2022-08-31T09:41:27.622Z,93004.56
2022-08-31T09:43:10.557Z,93003.13
2022-08-31T09:44:46.734Z,93002.31
2022-08-31T09:46:21.144Z,93005.28
2022-08-31T09:47:52.979Z,93004.31
2022-08-31T09:49:26.050Z,92999.78
2022-08-31T09:51:01.193Z,92999.81
2022-08-31T09:52:51.850Z,92992.22
2022-08-31T09:54:46.791Z,93001.47
2022-08-31T09:56:22.688Z,92992.66
2022-08-31T09:57:54.444Z,92980.09
2022-08-31T09:59:40.302Z,92990.22
2022-08-31T10:01:13.587Z,92991.75
2022-08-31T10:02:45.231Z,92989.19
2022-08-31T10:04:20.152Z,92981.66
2022-08-31T10:05:51.962Z,92984.41
2022-08-31T10:07:29.320Z,92985.19
2022-08-31T10:09:00.981Z,92980.09
2022-08-31T10:10:37.287Z,92973.75
2022-08-31T10:12:14.141Z,92967.38
2022-08-31T10:14:00.490Z,92966.44
2022-08-31T10:15:35.789Z,92968.25
2022-08-31T10:17:19.266Z,92959.81
2022-08-31T10:19:10.076Z,92958.53
2022-08-31T10:20:46.554Z,92959.16
2022-08-31T10:22:25.946Z,92950.53
2022-08-31T10:24:03.470Z,92942.47
2022-08-31T10:25:38.829Z,92943.84
2022-08-31T10:27:13.787Z,92939.00
2022-08-31T10:28:49.143Z,92929.63
2022-08-31T10:30:25.286Z,92928.56
2022-08-31T10:31:57.516Z,92928.66
2022-08-31T10:33:55.100Z,92927.78
2022-08-31T10:35:42.600Z,92920.56
2022-08-31T10:37:37.211Z,92927.53
2022-08-31T10:39:27.459Z,92923.94
2022-08-31T10:41:18.283Z,92915.97
2022-08-31T10:43:03.352Z,92915.63
2022-08-31T10:44:57.089Z,92915.94
2022-08-31T10:46:30.528Z,92919.84
2022-08-31T10:48:03.378Z,92909.78
2022-08-31T10:49:39.266Z,92912.88
2022-08-31T10:51:22.345Z,92908.44
2022-08-31T10:52:57.367Z,92912.00
2022-08-31T10:54:39.424Z,92905.31
2022-08-31T10:56:14.488Z,92913.38
2022-08-31T10:57:53.195Z,92901.31
2022-08-31T10:59:25.083Z,92908.44
2022-08-31T11:00:58.664Z,92897.97
2022-08-31T11:02:30.245Z,92903.16
2022-08-31T11:04:18.919Z,92900.53
2022-08-31T11:06:09.392Z,92909.72
2022-08-31T11:07:41.562Z,92901.81
2022-08-31T11:09:20.442Z,92901.13
2022-08-31T11:10:55.381Z,92909.47
2022-08-31T11:12:28.734Z,92903.97
2022-08-31T11:14:14.926Z,92897.69
2022-08-31T11:15:55.438Z,92904.41
2022-08-31T11:17:57.802Z,92903.91
2022-08-31T11:19:42.839Z,92897.06
2022-08-31T11:21:35.611Z,92887.72
2022-08-31T11:23:27.353Z,92883.97
2022-08-31T11:25:25.690Z,92885.53
2022-08-31T11:27:21.286Z,92887.28
2022-08-31T11:29:13.655Z,92892.16
2022-08-31T11:30:51.257Z,92895.16
2022-08-31T12:18:43.391Z,92902.97
2022-08-31T12:20:27.348Z,92918.88
2022-08-31T12:22:18.580Z,92926.69
2022-08-31T12:24:19.135Z,92942.28
2022-08-31T12:25:57.238Z,92946.31
2022-08-31T12:27:38.101Z,92950.00
2022-08-31T12:29:16.600Z,92959.72
2022-08-31T12:30:52.442Z,92959.84
2022-08-31T12:32:33.553Z,92956.34
2022-08-31T13:01:50.133Z,92932.84
2022-08-31T13:03:23.691Z,92933.97
2022-08-31T13:04:55.929Z,92931.97
2022-08-31T13:06:32.136Z,92931.09
2022-08-31T13:08:22.656Z,92929.06
2022-08-31T13:10:05.450Z,92930.16
2022-08-31T13:11:41.076Z,92931.69
2022-08-31T13:13:20.651Z,92930.84
2022-08-31T13:14:52.834Z,92919.13
2022-08-31T13:16:24.919Z,92924.97
2022-08-31T13:18:01.889Z,92919.53
2022-08-31T13:19:34.292Z,92917.59
2022-08-31T13:21:06.462Z,92918.38
2022-08-31T13:22:42.932Z,92912.91
2022-08-31T13:24:16.059Z,92910.59
2022-08-31T13:25:59.189Z,92905.53
2022-08-31T13:27:33.288Z,92915.75
2022-08-31T13:29:07.921Z,92912.63
2022-08-31T13:30:40.652Z,92915.81
2022-08-31T13:32:32.571Z,92919.34
2022-08-31T13:34:07.647Z,92908.41
2022-08-31T13:35:39.723Z,92916.25
2022-08-31T13:37:13.519Z,92908.81
2022-08-31T13:38:51.696Z,92917.81
2022-08-31T13:40:24.914Z,92920.56
2022-08-31T13:41:57.092Z,92919.03
2022-08-31T13:43:29.550Z,92911.19
2022-08-31T13:45:02.302Z,92917.03
2022-08-31T13:46:44.162Z,92911.50
2022-08-31T13:48:20.295Z,92912.59
2022-08-31T13:49:54.487Z,92917.28
2022-08-31T13:51:26.394Z,92911.75
2022-08-31T13:53:25.336Z,92909.00
2022-08-31T13:55:01.342Z,92910.22
2022-08-31T13:56:51.320Z,92913.38
2022-08-31T13:58:26.941Z,92919.34
2022-08-31T14:00:18.886Z,92917.03
2022-08-31T14:01:53.565Z,92912.41
2022-08-31T14:03:32.391Z,92915.97
2022-08-31T14:05:05.595Z,92917.13
2022-08-31T14:06:39.529Z,92915.19
2022-08-31T14:08:11.580Z,92918.00
2022-08-31T14:09:45.053Z,92930.59
2022-08-31T14:11:16.880Z,92926.72
2022-08-31T14:12:55.038Z,92934.56
2022-08-31T14:14:40.053Z,92936.19
2022-08-31T14:16:17.047Z,92947.19
2022-08-31T14:19:51.083Z,92954.81
2022-08-31T14:21:26.509Z,92956.47
2022-08-31T14:22:58.739Z,92950.63
2022-08-31T14:24:32.709Z,92953.81
2022-08-31T14:26:16.009Z,92960.50
2022-08-31T14:27:49.515Z,92958.16
2022-08-31T14:29:21.140Z,92960.56
2022-08-31T14:30:53.998Z,92957.44
2022-08-31T14:32:29.225Z,92961.00
2022-08-31T14:34:09.887Z,92955.13
2022-08-31T14:35:41.659Z,92961.81
2022-08-31T14:37:20.037Z,92961.81
2022-08-31T14:38:54.744Z,92977.50
2022-08-31T14:40:26.715Z,92970.84
2022-08-31T14:42:02.883Z,92981.03
2022-08-31T14:43:35.114Z,92972.78
2022-08-31T14:45:07.281Z,92973.16
2022-08-31T14:46:39.577Z,92970.41
2022-08-31T14:48:13.774Z,92974.75
2022-08-31T14:49:45.611Z,92974.75
2022-08-31T14:51:17.546Z,92972.03
2022-08-31T14:52:55.718Z,92967.31
2022-08-31T14:54:34.883Z,92962.19
2022-08-31T14:56:07.788Z,92957.50
2022-08-31T14:57:41.982Z,92962.97
2022-08-31T14:59:16.228Z,92962.97
2022-08-31T15:00:53.281Z,92969.66
2022-08-31T15:02:29.354Z,92965.38
2022-08-31T15:04:04.274Z,92975.97
2022-08-31T15:05:39.332Z,92979.09
2022-08-31T15:07:11.156Z,92975.94
2022-08-31T15:08:42.778Z,92964.94
2022-08-31T15:10:14.463Z,92964.56
2022-08-31T15:11:46.227Z,92958.66
2022-08-31T15:13:17.847Z,92957.50
2022-08-31T15:14:50.088Z,92957.88
2022-08-31T15:16:24.290Z,92949.66
2022-08-31T15:17:57.362Z,92950.44
2022-08-31T15:19:29.105Z,92950.44
2022-08-31T15:21:02.443Z,92948.47
2022-08-31T15:22:35.261Z,92941.84
2022-08-31T15:24:06.915Z,92941.81
2022-08-31T15:25:39.632Z,92946.13
2022-08-31T15:27:14.576Z,92939.06
2022-08-31T15:28:46.220Z,92946.13
2022-08-31T15:30:19.811Z,92935.94
2022-08-31T15:31:52.970Z,92940.25
2022-08-31T15:33:25.614Z,92942.22
2022-08-31T15:34:58.292Z,92947.66
2022-08-31T15:36:30.261Z,92948.06
2022-08-31T15:38:03.496Z,92950.78
2022-08-31T15:39:38.899Z,92945.69
2022-08-31T15:41:12.317Z,92939.75
2022-08-31T15:42:44.177Z,92940.84
2022-08-31T15:44:16.798Z,92940.09
2022-08-31T15:45:48.470Z,92945.19
2022-08-31T15:47:39.108Z,92942.09
2022-08-31T15:49:10.719Z,92946.41
2022-08-31T15:51:00.697Z,92945.22
2022-08-31T15:52:32.443Z,92937.34
2022-08-31T15:54:21.183Z,92950.25
2022-08-31T15:55:53.833Z,92948.25
2022-08-31T15:57:25.480Z,92949.38
2022-08-31T15:58:58.632Z,92941.84
2022-08-31T16:00:32.848Z,92943.47
2022-08-31T16:02:05.046Z,92951.69
2022-08-31T16:03:40.829Z,92950.13
2022-08-31T16:05:13.433Z,92956.00
2022-08-31T16:06:45.234Z,92951.34
2022-08-31T16:08:17.058Z,92954.09
2022-08-31T16:09:48.723Z,92945.13
2022-08-31T16:11:21.131Z,92955.69
2022-08-31T16:12:52.913Z,92940.44
2022-08-31T16:14:25.039Z,92941.63
2022-08-31T16:15:56.679Z,92945.94
2022-08-31T16:17:28.443Z,92938.50
2022-08-31T16:19:04.505Z,92941.25
2022-08-31T16:20:36.393Z,92942.03
2022-08-31T16:22:08.489Z,92942.81
2022-08-31T16:23:40.259Z,92932.25
2022-08-31T16:25:13.281Z,92934.16
2022-08-31T16:26:45.385Z,92945.88
2022-08-31T16:28:18.148Z,92939.09
2022-08-31T16:29:51.072Z,92938.63
2022-08-31T16:31:24.800Z,92932.28
2022-08-31T16:32:56.441Z,92936.97
2022-08-31T16:34:29.179Z,92931.47
2022-08-31T16:36:00.974Z,92924.41
2022-08-31T16:37:32.986Z,92922.06
2022-08-31T16:39:04.785Z,92918.19
2022-08-31T16:40:36.729Z,92914.28
2022-08-31T16:42:08.956Z,92915.44
2022-08-31T16:43:40.866Z,92909.50
2022-08-31T16:45:12.655Z,92912.63
2022-08-31T16:46:44.837Z,92904.81
2022-08-31T16:48:34.833Z,92907.88
2022-08-31T16:50:08.876Z,92901.53
2022-08-31T16:51:40.508Z,92908.50
2022-08-31T16:53:16.467Z,92903.72
2022-08-31T16:54:48.673Z,92901.63
2022-08-31T16:56:20.741Z,92903.44
2022-08-31T16:57:52.393Z,92899.75
2022-08-31T16:59:24.653Z,92896.16
2022-08-31T17:01:02.184Z,92887.50
2022-08-31T17:02:34.224Z,92897.69
2022-08-31T17:04:06.787Z,92894.13
2022-08-31T17:05:38.388Z,92894.47
2022-08-31T17:07:10.871Z,92882.34
2022-08-31T17:08:45.688Z,92890.53
2022-08-31T17:10:17.381Z,92880.34
2022-08-31T17:11:53.224Z,92884.25
2022-08-31T17:13:28.527Z,92883.84
2022-08-31T17:15:01.082Z,92877.94
2022-08-31T17:16:34.865Z,92874.81
2022-08-31T17:18:06.724Z,92883.38
2022-08-31T17:19:38.948Z,92886.06
2022-08-31T17:21:15.156Z,92887.94
2022-08-31T17:22:48.861Z,92895.66
2022-08-31T17:24:24.703Z,92901.47
2022-08-31T17:25:56.765Z,92905.72
2022-08-31T17:27:28.888Z,92906.81
2022-08-31T17:29:05.006Z,92909.13
2022-08-31T17:30:39.633Z,92918.00
2022-08-31T17:32:12.263Z,92912.50
2022-08-31T17:33:43.864Z,92922.63
2022-08-31T17:35:19.298Z,92928.81
2022-08-31T17:36:51.475Z,92933.44
2022-08-31T17:38:24.395Z,92938.06
2022-08-31T17:39:56.318Z,92934.13
2022-08-31T17:41:28.516Z,92944.16
2022-08-31T17:43:01.326Z,92938.59
2022-08-31T17:44:33.058Z,92943.66
2022-08-31T17:46:09.020Z,92945.97
2022-08-31T17:47:40.800Z,92948.69
2022-08-31T17:49:12.866Z,92954.88
2022-08-31T17:50:44.727Z,92950.91
2022-08-31T17:52:16.824Z,92954.75
2022-08-31T17:53:48.870Z,92951.16
2022-08-31T17:55:20.491Z,92945.63
2022-08-31T17:56:56.894Z,92950.66
2022-08-31T17:58:28.645Z,92948.66
2022-08-31T18:00:00.474Z,92950.53
2022-08-31T18:01:32.177Z,92958.28
2022-08-31T18:03:05.396Z,92968.03
2022-08-31T18:04:37.148Z,92967.59
2022-08-31T18:06:08.828Z,92958.91
2022-08-31T18:07:41.017Z,92965.88
2022-08-31T18:09:16.611Z,92958.00
2022-08-31T18:10:54.575Z,92960.31
2022-08-31T18:12:27.560Z,92962.91
2022-08-31T18:13:59.431Z,92960.41
2022-08-31T18:15:31.455Z,92963.78
2022-08-31T18:17:04.015Z,92962.94
2022-08-31T18:18:35.763Z,92970.28
2022-08-31T18:20:08.500Z,92973.72
2022-08-31T18:21:40.286Z,92974.94
2022-08-31T18:23:12.567Z,92978.81
2022-08-31T18:24:44.497Z,92978.72
2022-08-31T18:26:22.451Z,92982.91
2022-08-31T18:27:56.385Z,92983.47
2022-08-31T18:29:33.304Z,92972.13
2022-08-31T18:31:07.790Z,92984.19
2022-08-31T18:32:42.566Z,92976.63
2022-08-31T18:34:22.839Z,92975.06
2022-08-31T18:35:55.313Z,92980.53
2022-08-31T18:37:27.033Z,92982.50
2022-08-31T18:38:59.805Z,92980.22
2022-08-31T18:40:50.141Z,92991.22
2022-08-31T18:42:40.576Z,92994.41
2022-08-31T18:44:30.625Z,92990.31
2022-08-31T18:46:02.705Z,92996.25
2022-08-31T18:47:34.362Z,92993.94
2022-08-31T18:49:12.442Z,92995.53
2022-08-31T18:50:45.975Z,92991.66
2022-08-31T18:52:22.962Z,92990.06
2022-08-31T18:53:54.920Z,92986.91
2022-08-31T18:55:26.885Z,92992.38
2022-08-31T18:56:58.828Z,92988.00
2022-08-31T18:58:30.512Z,92984.78
2022-08-31T19:00:03.114Z,92977.22
2022-08-31T19:01:34.886Z,92978.28
2022-08-31T19:03:06.802Z,92979.00
2022-08-31T19:04:38.757Z,92977.72
2022-08-31T19:06:15.688Z,92981.16
2022-08-31T19:07:47.584Z,92974.56
2022-08-31T19:09:19.256Z,92969.53
2022-08-31T19:10:51.429Z,92972.28
2022-08-31T19:12:24.674Z,92965.94
2022-08-31T19:13:56.435Z,92958.78
2022-08-31T19:15:35.403Z,92953.25
2022-08-31T19:17:08.421Z,92962.16
2022-08-31T19:18:42.328Z,92968.81
2022-08-31T19:20:14.318Z,92961.94
2022-08-31T19:21:46.057Z,92962.16
2022-08-31T19:23:20.210Z,92961.44
2022-08-31T19:24:52.199Z,92957.56
2022-08-31T19:26:26.766Z,92956.06
2022-08-31T19:28:01.594Z,92949.75
2022-08-31T19:29:33.617Z,92952.31
2022-08-31T19:31:06.531Z,92960.81
2022-08-31T19:32:38.759Z,92963.16
2022-08-31T19:34:11.246Z,92962.00
2022-08-31T19:35:42.966Z,92966.31
2022-08-31T19:37:16.117Z,92965.59
2022-08-31T19:38:48.279Z,92962.94
2022-08-31T19:40:20.005Z,92958.72
2022-08-31T19:41:52.886Z,92961.06
2022-08-31T19:45:40.867Z,92956.84
2022-08-31T19:47:24.437Z,92956.06
2022-08-31T19:48:59.829Z,92959.56
2022-08-31T19:50:31.513Z,92965.38
2022-08-31T19:52:04.243Z,92959.91
2022-08-31T19:53:36.096Z,92956.72
2022-08-31T19:55:14.243Z,92957.78
2022-08-31T19:56:46.350Z,92955.84
2022-08-31T19:58:18.563Z,92960.50
2022-08-31T19:59:50.280Z,92963.22
2022-08-31T20:01:25.352Z,92969.81
2022-08-31T20:02:57.183Z,92962.38
2022-08-31T20:04:29.873Z,92973.63
2022-08-31T20:06:08.042Z,92966.97
2022-08-31T20:07:41.592Z,92968.75
2022-08-31T20:09:13.685Z,92974.13
2022-08-31T20:10:45.723Z,92971.66
2022-08-31T20:12:19.033Z,92971.25
2022-08-31T20:13:50.951Z,92973.91
2022-08-31T20:15:22.973Z,92976.97
2022-08-31T20:16:55.138Z,92989.34
2022-08-31T20:18:28.451Z,92992.72
2022-08-31T20:20:00.959Z,92994.56
2022-08-31T20:21:35.006Z,92995.22
2022-08-31T20:23:07.034Z,92996.69